Pagina principală
METAR-TAF:

METAR-TAF

Aeroporturi :

Salerno, Italia

Latitudine: 40-37N, longitudine: 014-55E, elevație: 40 m

Observații meteo curente

Raportul a fost făcut în urmă cu 51 de minute, la 08:50 UTC
Vânt 5 kt de la Sud-vest, variabil între Sud/Sud-vest și Vest
Temperatură 30°C
Umiditate 66%
Presiune 1015 hPa
Vizibilitate de 10 km sau mai mult
nu există nori sub 1.500 m și nici cumulonimbus

METAR: LIRI 170850Z 23005KT 200V270 CAVOK 30/23 Q1015

Ora: 11:41 (09:41 UTC)


TAF: lipsă

Observații și prognoze meteo pentru peste 4.000 de aeroporturi (rapoarte METAR și TAF).

Stațiile disponibile sunt reprezentate pe hartă prin puncte galbene și roșii.

Țineți indicatorul mouse-ului pe punctul dorit pentru a vedea denumirea stației.

Apoi, faceți clic pentru a vedea observațiile și prognozele meteorologice.

Pentru a schimba harta: Pentru mărire, faceți clic pe butoanele verzi cu cruce neagră; pentru micșorare, pe butonul verde cu o liniuță; pentru hărți învecinate, pe săgețile verzi.


METAR-TAF: